createdAt,value
2017-02-01T00:00:18.336Z,1014.54
2017-02-01T00:01:29.941Z,1014.53
2017-02-01T00:02:41.792Z,1014.57
2017-02-01T00:03:53.190Z,1014.54
2017-02-01T00:05:04.599Z,1014.59
2017-02-01T00:06:16.204Z,1014.55
2017-02-01T00:07:27.604Z,1014.59
2017-02-01T00:08:39.059Z,1014.54
2017-02-01T00:09:50.468Z,1014.55
2017-02-01T00:11:02.081Z,1014.51
2017-02-01T00:12:13.487Z,1014.52
2017-02-01T00:13:24.890Z,1014.49
2017-02-01T00:14:36.539Z,1014.48
2017-02-01T00:15:47.947Z,1014.49
2017-02-01T00:16:59.573Z,1014.5
2017-02-01T00:18:10.973Z,1014.43
2017-02-01T00:19:22.367Z,1014.47
2017-02-01T00:20:33.818Z,1014.43
2017-02-01T00:21:45.227Z,1014.46
2017-02-01T00:22:56.632Z,1014.41
2017-02-01T00:24:08.034Z,1014.42
2017-02-01T00:25:19.641Z,1014.45
2017-02-01T00:26:31.297Z,1014.47
2017-02-01T00:27:42.703Z,1014.43
2017-02-01T00:28:54.305Z,1014.46
2017-02-01T00:30:05.714Z,1014.43
2017-02-01T00:31:17.328Z,1014.46
2017-02-01T00:32:28.784Z,1014.4
2017-02-01T00:33:40.187Z,1014.45
2017-02-01T00:34:51.596Z,1014.43
2017-02-01T00:36:02.996Z,1014.4
2017-02-01T00:37:14.391Z,1014.47
2017-02-01T00:38:25.847Z,1014.43
2017-02-01T00:39:37.253Z,1014.4
2017-02-01T00:40:48.660Z,1014.41
2017-02-01T00:42:00.060Z,1014.38
2017-02-01T00:43:11.459Z,1014.41
2017-02-01T00:44:22.917Z,1014.42
2017-02-01T00:45:34.325Z,1014.41
2017-02-01T00:46:45.742Z,1014.37
2017-02-01T00:47:57.348Z,1014.41
2017-02-01T00:49:08.756Z,1014.4
2017-02-01T00:50:20.205Z,1014.35
2017-02-01T00:51:31.811Z,1014.37
2017-02-01T00:52:43.415Z,1014.35
2017-02-01T00:53:54.825Z,1014.34
2017-02-01T00:55:06.229Z,1014.3
2017-02-01T00:56:17.688Z,1014.32
2017-02-01T00:57:29.090Z,1014.34
2017-02-01T00:58:40.500Z,1014.32
2017-02-01T00:59:52.137Z,1014.31
2017-02-01T01:01:03.545Z,1014.27
2017-02-01T01:02:15.004Z,1014.32
2017-02-01T01:03:26.412Z,1014.28
2017-02-01T01:04:37.816Z,1014.29
2017-02-01T01:05:49.212Z,1014.21
2017-02-01T01:07:00.821Z,1014.29
2017-02-01T01:08:12.282Z,1014.3
2017-02-01T01:09:23.693Z,1014.31
2017-02-01T01:10:35.102Z,1014.28
2017-02-01T01:11:46.508Z,1014.31
2017-02-01T01:12:57.919Z,1014.32
2017-02-01T01:14:09.371Z,1014.26
2017-02-01T01:15:20.769Z,1014.32
2017-02-01T01:16:32.179Z,1014.3
2017-02-01T01:17:43.791Z,1014.35
2017-02-01T01:18:55.190Z,1014.36
2017-02-01T01:20:06.840Z,1014.33
2017-02-01T01:21:18.268Z,1014.33
2017-02-01T01:22:29.669Z,1014.32
2017-02-01T01:23:41.069Z,1014.33
2017-02-01T01:24:52.469Z,1014.29
2017-02-01T01:26:04.126Z,1014.31
2017-02-01T01:27:15.540Z,1014.29
2017-02-01T01:28:26.939Z,1014.33
2017-02-01T01:29:38.347Z,1014.3
2017-02-01T01:30:49.747Z,1014.35
2017-02-01T01:32:01.204Z,1014.33
2017-02-01T01:33:12.621Z,1014.33
2017-02-01T01:34:24.028Z,1014.37
2017-02-01T01:35:35.426Z,1014.4
2017-02-01T01:36:46.824Z,1014.39
2017-02-01T01:37:58.297Z,1014.4
2017-02-01T01:39:09.694Z,1014.39
2017-02-01T01:40:21.292Z,1014.42
2017-02-01T01:41:32.722Z,1014.41
2017-02-01T01:42:44.167Z,1014.44
2017-02-01T01:43:55.820Z,1014.47
2017-02-01T01:45:07.229Z,1014.49
2017-02-01T01:46:19.037Z,1014.54
2017-02-01T01:47:30.841Z,1014.44
2017-02-01T01:48:42.248Z,1014.47
2017-02-01T01:49:53.709Z,1014.45
2017-02-01T01:51:05.124Z,1014.46
2017-02-01T01:52:16.529Z,1014.48
2017-02-01T01:53:27.932Z,1014.46
2017-02-01T01:54:39.532Z,1014.47
2017-02-01T01:55:50.988Z,1014.4
2017-02-01T01:57:02.393Z,1014.43
2017-02-01T01:58:13.796Z,1014.45
2017-02-01T01:59:25.193Z,1014.42
2017-02-01T02:00:36.790Z,1014.41
2017-02-01T02:01:48.645Z,1014.44
2017-02-01T02:03:00.092Z,1014.48
2017-02-01T02:04:11.695Z,1014.37
2017-02-01T02:05:23.094Z,1014.36
2017-02-01T02:06:34.701Z,1014.3
2017-02-01T02:07:46.155Z,1014.27
2017-02-01T02:08:57.756Z,1014.29
2017-02-01T02:10:09.158Z,1014.32
2017-02-01T02:11:20.562Z,1014.28
2017-02-01T02:12:31.965Z,1014.29
2017-02-01T02:13:43.420Z,1014.25
2017-02-01T02:14:54.829Z,1014.24
2017-02-01T02:16:06.448Z,1014.26
2017-02-01T02:17:18.052Z,1014.26
2017-02-01T02:18:29.458Z,1014.25
2017-02-01T02:19:40.912Z,1014.22
2017-02-01T02:20:52.318Z,1014.21
2017-02-01T02:22:03.753Z,1014.23
2017-02-01T02:23:15.164Z,1014.23
2017-02-01T02:24:26.561Z,1014.27
2017-02-01T02:25:38.023Z,1014.22
2017-02-01T02:26:49.638Z,1014.24
2017-02-01T02:28:01.038Z,1014.23
2017-02-01T02:29:12.440Z,1014.26
2017-02-01T02:30:23.840Z,1014.22
2017-02-01T02:31:35.298Z,1014.25
2017-02-01T02:32:46.707Z,1014.27
2017-02-01T02:33:58.325Z,1014.25
2017-02-01T02:35:09.730Z,1014.25
2017-02-01T02:36:21.140Z,1014.18
2017-02-01T02:37:32.593Z,1014.24
2017-02-01T02:38:43.989Z,1014.26
2017-02-01T02:39:55.390Z,1014.22
2017-02-01T02:41:06.788Z,1014.21
2017-02-01T02:42:18.190Z,1014.21
2017-02-01T02:43:29.645Z,1014.23
2017-02-01T02:44:41.053Z,1014.22
2017-02-01T02:45:52.454Z,1014.21
2017-02-01T02:47:04.059Z,1014.2
2017-02-01T02:48:15.464Z,1014.19
2017-02-01T02:49:26.912Z,1014.15
2017-02-01T02:50:38.320Z,1014.14
2017-02-01T02:51:49.756Z,1014.13
2017-02-01T02:53:01.165Z,1014.11
2017-02-01T02:54:12.579Z,1014.12
2017-02-01T02:55:24.029Z,1014.11
2017-02-01T02:56:35.627Z,1014.12
2017-02-01T02:57:47.240Z,1014.1
2017-02-01T02:58:58.850Z,1014.11
2017-02-01T03:00:10.261Z,1014.14
2017-02-01T03:01:21.731Z,1014.13
2017-02-01T03:02:33.335Z,1014.11
2017-02-01T03:03:44.742Z,1014.09
2017-02-01T03:04:56.158Z,1014.11
2017-02-01T03:06:07.561Z,1014.09
2017-02-01T03:07:19.006Z,1014.09
2017-02-01T03:08:30.613Z,1014.06
2017-02-01T03:09:42.026Z,1014.05
2017-02-01T03:10:53.464Z,1014.05
2017-02-01T03:12:04.859Z,1014.08
2017-02-01T03:13:16.315Z,1014.06
2017-02-01T03:14:27.713Z,1014.05
2017-02-01T03:15:39.117Z,1014.08
2017-02-01T03:16:50.520Z,1014.06
2017-02-01T03:18:01.935Z,1014.03
2017-02-01T03:19:13.391Z,1014.04
2017-02-01T03:20:24.795Z,1014
2017-02-01T03:21:36.205Z,1014.05
2017-02-01T03:22:47.614Z,1014.02
2017-02-01T03:23:59.017Z,1013.97
2017-02-01T03:25:10.473Z,1013.98
2017-02-01T03:26:21.877Z,1013.95
2017-02-01T03:27:33.272Z,1013.95
2017-02-01T03:28:44.673Z,1013.94
2017-02-01T03:29:56.076Z,1013.99
2017-02-01T03:31:07.536Z,1013.92
2017-02-01T03:32:18.936Z,1013.92
2017-02-01T03:33:30.343Z,1013.86
2017-02-01T03:34:41.952Z,1013.82
2017-02-01T03:35:53.363Z,1013.81
2017-02-01T03:37:04.819Z,1013.81
2017-02-01T03:38:16.240Z,1013.75
2017-02-01T03:39:27.643Z,1013.73
2017-02-01T03:40:39.079Z,1013.72
2017-02-01T03:41:50.479Z,1013.75
2017-02-01T03:43:01.929Z,1013.77
2017-02-01T03:44:13.326Z,1013.76
2017-02-01T03:45:24.728Z,1013.76
2017-02-01T03:46:36.140Z,1013.71
2017-02-01T03:47:47.543Z,1013.72
2017-02-01T03:48:58.994Z,1013.72
2017-02-01T03:50:10.607Z,1013.68
2017-02-01T03:51:22.006Z,1013.7
2017-02-01T03:52:33.412Z,1013.65
2017-02-01T03:53:45.017Z,1013.69
2017-02-01T03:54:56.466Z,1013.64
2017-02-01T03:56:07.874Z,1013.65
2017-02-01T03:57:19.269Z,1013.61
2017-02-01T03:58:30.870Z,1013.64
2017-02-01T03:59:42.273Z,1013.61
2017-02-01T04:00:53.729Z,1013.63
2017-02-01T04:02:05.143Z,1013.54
2017-02-01T04:03:16.543Z,1013.55
2017-02-01T04:04:27.955Z,1013.58
2017-02-01T04:05:39.566Z,1013.55
2017-02-01T04:06:51.013Z,1013.55
2017-02-01T04:08:02.409Z,1013.59
2017-02-01T04:09:13.807Z,1013.6
2017-02-01T04:10:25.209Z,1013.62
2017-02-01T04:11:36.815Z,1013.54
2017-02-01T04:12:48.480Z,1013.55
2017-02-01T04:13:59.879Z,1013.58
2017-02-01T04:15:11.287Z,1013.54
2017-02-01T04:16:22.681Z,1013.5
2017-02-01T04:17:34.085Z,1013.55
2017-02-01T04:18:45.535Z,1013.5
2017-02-01T04:19:57.137Z,1013.45
2017-02-01T04:21:08.743Z,1013.45
2017-02-01T04:22:20.144Z,1013.47
2017-02-01T04:23:31.575Z,1013.52
2017-02-01T04:24:43.036Z,1013.5
2017-02-01T04:25:54.446Z,1013.47
2017-02-01T04:27:06.044Z,1013.49
2017-02-01T04:28:17.443Z,1013.5
2017-02-01T04:29:28.881Z,1013.51
2017-02-01T04:30:40.542Z,1013.49
2017-02-01T04:31:51.947Z,1013.55
2017-02-01T04:33:03.359Z,1013.55
2017-02-01T04:34:14.966Z,1013.53
2017-02-01T04:35:26.363Z,1013.54
2017-02-01T04:36:37.845Z,1013.53
2017-02-01T04:37:49.243Z,1013.51
2017-02-01T04:39:00.652Z,1013.52
2017-02-01T04:40:12.060Z,1013.45
2017-02-01T04:41:23.467Z,1013.46
2017-02-01T04:42:34.924Z,1013.45
2017-02-01T04:43:46.346Z,1013.45
2017-02-01T04:44:57.754Z,1013.48
2017-02-01T04:46:09.183Z,1013.52
2017-02-01T04:47:20.588Z,1013.47
2017-02-01T04:48:32.043Z,1013.47
2017-02-01T04:49:43.457Z,1013.45
2017-02-01T04:50:54.859Z,1013.45
2017-02-01T04:52:06.276Z,1013.45
2017-02-01T04:53:17.682Z,1013.46
2017-02-01T04:54:29.137Z,1013.48
2017-02-01T04:55:40.539Z,1013.48
2017-02-01T04:56:51.956Z,1013.5
2017-02-01T04:58:03.369Z,1013.52
2017-02-01T04:59:14.775Z,1013.49
2017-02-01T05:00:26.435Z,1013.51
2017-02-01T05:01:37.835Z,1013.5
2017-02-01T05:02:49.466Z,1013.48
2017-02-01T05:04:00.875Z,1013.51
2017-02-01T05:05:12.286Z,1013.5
2017-02-01T05:06:23.745Z,1013.55
2017-02-01T05:07:35.148Z,1013.54
2017-02-01T05:08:46.554Z,1013.48
2017-02-01T05:09:57.956Z,1013.52
2017-02-01T05:11:09.363Z,1013.56
2017-02-01T05:12:20.813Z,1013.56
2017-02-01T05:13:32.218Z,1013.53
2017-02-01T05:14:43.610Z,1013.52
2017-02-01T05:15:55.011Z,1013.57
2017-02-01T05:17:06.419Z,1013.52
2017-02-01T05:18:17.875Z,1013.53
2017-02-01T05:19:29.279Z,1013.59
2017-02-01T05:20:40.686Z,1013.58
2017-02-01T05:21:52.092Z,1013.58
2017-02-01T05:23:03.495Z,1013.58
2017-02-01T05:24:14.953Z,1013.57
2017-02-01T05:25:26.354Z,1013.56
2017-02-01T05:26:37.780Z,1013.54
2017-02-01T05:27:49.174Z,1013.52
2017-02-01T05:29:00.582Z,1013.52
2017-02-01T05:30:12.032Z,1013.56
2017-02-01T05:31:23.435Z,1013.55
2017-02-01T05:32:34.863Z,1013.56
2017-02-01T05:33:46.266Z,1013.57
2017-02-01T05:34:57.664Z,1013.56
2017-02-01T05:36:09.109Z,1013.59
2017-02-01T05:37:20.514Z,1013.59
2017-02-01T05:38:31.922Z,1013.57
2017-02-01T05:39:43.326Z,1013.61
2017-02-01T05:40:54.735Z,1013.6
2017-02-01T05:42:06.187Z,1013.61
2017-02-01T05:43:17.594Z,1013.58
2017-02-01T05:44:29.198Z,1013.55
2017-02-01T05:45:40.598Z,1013.59
2017-02-01T05:46:52.011Z,1013.63
2017-02-01T05:48:03.473Z,1013.64
2017-02-01T05:49:15.079Z,1013.61
2017-02-01T05:50:26.677Z,1013.56
2017-02-01T05:51:38.074Z,1013.58
2017-02-01T05:52:49.483Z,1013.59
2017-02-01T05:54:00.941Z,1013.52
2017-02-01T05:55:12.339Z,1013.64
2017-02-01T05:56:23.742Z,1013.6
2017-02-01T05:57:35.142Z,1013.62
2017-02-01T05:58:46.549Z,1013.59
2017-02-01T05:59:58.007Z,1013.58
2017-02-01T06:01:09.411Z,1013.57
2017-02-01T06:02:21.016Z,1013.55
2017-02-01T06:03:32.816Z,1013.53
2017-02-01T06:04:44.225Z,1013.53
2017-02-01T06:05:55.890Z,1013.5
2017-02-01T06:07:07.292Z,1013.52
2017-02-01T06:08:18.703Z,1013.51
2017-02-01T06:09:30.114Z,1013.5
2017-02-01T06:10:41.525Z,1013.5
2017-02-01T06:11:52.979Z,1013.5
2017-02-01T06:13:04.586Z,1013.53
2017-02-01T06:14:15.983Z,1013.54
2017-02-01T06:15:27.387Z,1013.5
2017-02-01T06:16:38.792Z,1013.52
2017-02-01T06:17:50.246Z,1013.48
2017-02-01T06:19:01.651Z,1013.49
2017-02-01T06:20:13.059Z,1013.45
2017-02-01T06:21:24.455Z,1013.48
2017-02-01T06:22:36.048Z,1013.49
2017-02-01T06:23:47.502Z,1013.5
2017-02-01T06:24:58.909Z,1013.51
2017-02-01T06:26:10.313Z,1013.51
2017-02-01T06:27:21.720Z,1013.49
2017-02-01T06:28:33.126Z,1013.48
2017-02-01T06:29:44.581Z,1013.49
2017-02-01T06:30:55.987Z,1013.48
2017-02-01T06:32:07.387Z,1013.49
2017-02-01T06:33:18.792Z,1013.47
2017-02-01T06:34:30.193Z,1013.5
2017-02-01T06:35:41.846Z,1013.51
2017-02-01T06:36:53.650Z,1013.5
2017-02-01T06:38:05.059Z,1013.54
2017-02-01T06:39:16.668Z,1013.55
2017-02-01T06:40:28.070Z,1013.51
2017-02-01T06:41:39.538Z,1013.53
2017-02-01T06:42:50.938Z,1013.52
2017-02-01T06:44:02.337Z,1013.47
2017-02-01T06:45:13.742Z,1013.45
2017-02-01T06:46:25.150Z,1013.46
2017-02-01T06:47:36.598Z,1013.45
2017-02-01T06:48:48.002Z,1013.42
2017-02-01T06:49:59.604Z,1013.41
2017-02-01T06:51:11.203Z,1013.41
2017-02-01T06:52:22.607Z,1013.43
2017-02-01T06:53:34.057Z,1013.39
2017-02-01T06:54:45.458Z,1013.4
2017-02-01T06:55:56.863Z,1013.43
2017-02-01T06:57:08.273Z,1013.38
2017-02-01T06:58:19.677Z,1013.4
2017-02-01T06:59:31.127Z,1013.41
2017-02-01T07:00:42.551Z,1013.42
2017-02-01T07:01:53.965Z,1013.4
2017-02-01T07:03:05.369Z,1013.39
2017-02-01T07:04:16.763Z,1013.35
2017-02-01T07:05:28.221Z,1013.4
2017-02-01T07:06:39.832Z,1013.37
2017-02-01T07:07:51.439Z,1013.41
2017-02-01T07:09:02.843Z,1013.38
2017-02-01T07:10:14.853Z,1013.37
2017-02-01T07:11:26.513Z,1013.32
2017-02-01T07:12:37.919Z,1013.39
2017-02-01T07:13:49.332Z,1013.33
2017-02-01T07:15:00.737Z,1013.33
2017-02-01T07:16:12.147Z,1013.33
2017-02-01T07:17:23.609Z,1013.3
2017-02-01T07:18:35.012Z,1013.27
2017-02-01T07:19:46.419Z,1013.32
2017-02-01T07:20:57.828Z,1013.31
2017-02-01T07:22:09.233Z,1013.31
2017-02-01T07:23:20.693Z,1013.32
2017-02-01T07:24:32.087Z,1013.3
2017-02-01T07:25:43.494Z,1013.32
2017-02-01T07:26:54.889Z,1013.3
2017-02-01T07:28:06.497Z,1013.3
2017-02-01T07:29:17.953Z,1013.29
2017-02-01T07:30:29.354Z,1013.31
2017-02-01T07:31:40.963Z,1013.32
2017-02-01T07:32:52.590Z,1013.31
2017-02-01T07:34:04.020Z,1013.32
2017-02-01T07:35:15.471Z,1013.31
2017-02-01T07:36:26.875Z,1013.31
2017-02-01T07:37:38.286Z,1013.25
2017-02-01T07:38:49.889Z,1013.27
2017-02-01T07:40:01.297Z,1013.24
2017-02-01T07:41:12.948Z,1013.22
2017-02-01T07:42:24.550Z,1013.3
2017-02-01T07:43:35.964Z,1013.26
2017-02-01T07:44:47.373Z,1013.26
2017-02-01T07:45:58.978Z,1013.27
2017-02-01T07:47:10.437Z,1013.24
2017-02-01T07:48:22.446Z,1013.27
2017-02-01T07:49:33.861Z,1013.29
2017-02-01T07:50:45.296Z,1013.3
2017-02-01T07:51:56.702Z,1013.29
2017-02-01T07:53:08.360Z,1013.3
2017-02-01T07:54:19.768Z,1013.28
2017-02-01T07:55:31.174Z,1013.28
2017-02-01T07:56:42.578Z,1013.34
2017-02-01T07:57:54.009Z,1013.26
2017-02-01T07:59:05.671Z,1013.33
2017-02-01T08:00:17.070Z,1013.27
2017-02-01T08:01:28.474Z,1013.24
2017-02-01T08:02:39.878Z,1013.29
2017-02-01T08:03:51.485Z,1013.31
2017-02-01T08:05:02.944Z,1013.29
2017-02-01T08:06:14.356Z,1013.31
2017-02-01T08:07:25.760Z,1013.31
2017-02-01T08:08:37.173Z,1013.33
2017-02-01T08:09:48.580Z,1013.35
2017-02-01T08:11:00.039Z,1013.35
2017-02-01T08:12:11.430Z,1013.34
2017-02-01T08:13:22.836Z,1013.34
2017-02-01T08:14:34.253Z,1013.39
2017-02-01T08:15:45.659Z,1013.34
2017-02-01T08:16:57.113Z,1013.31
2017-02-01T08:18:08.518Z,1013.34
2017-02-01T08:19:20.134Z,1013.28
2017-02-01T08:20:31.534Z,1013.32
2017-02-01T08:21:42.933Z,1013.32
2017-02-01T08:22:54.384Z,1013.34
2017-02-01T08:24:05.787Z,1013.33
2017-02-01T08:25:17.388Z,1013.34
2017-02-01T08:26:28.797Z,1013.35
2017-02-01T08:27:40.210Z,1013.36
2017-02-01T08:28:51.668Z,1013.38
2017-02-01T08:30:03.077Z,1013.36
2017-02-01T08:31:14.492Z,1013.37
2017-02-01T08:32:25.902Z,1013.41
2017-02-01T08:33:37.329Z,1013.41
2017-02-01T08:34:48.781Z,1013.45
2017-02-01T08:36:00.192Z,1013.4
2017-02-01T08:37:11.804Z,1013.39
2017-02-01T08:38:23.411Z,1013.39
2017-02-01T08:39:34.820Z,1013.37
2017-02-01T08:40:46.301Z,1013.31
2017-02-01T08:41:57.712Z,1013.29
2017-02-01T08:43:09.118Z,1013.24
2017-02-01T08:44:20.530Z,1013.24
2017-02-01T08:45:31.937Z,1013.28
2017-02-01T08:46:43.388Z,1013.27
2017-02-01T08:47:54.793Z,1013.25
2017-02-01T08:49:06.205Z,1013.25
2017-02-01T08:50:17.821Z,1013.26
2017-02-01T08:51:29.222Z,1013.29
2017-02-01T08:52:40.688Z,1013.3
2017-02-01T08:53:52.091Z,1013.27
2017-02-01T08:55:03.498Z,1013.24
2017-02-01T08:56:14.906Z,1013.21
2017-02-01T08:57:26.511Z,1013.21
2017-02-01T08:58:37.966Z,1013.22
2017-02-01T08:59:49.395Z,1013.12
2017-02-01T09:01:00.795Z,1013.13
2017-02-01T09:02:12.201Z,1013.2
2017-02-01T09:03:23.612Z,1013.16
2017-02-01T09:04:35.272Z,1013.12
2017-02-01T09:05:46.682Z,1013.14
2017-02-01T09:06:58.087Z,1013.13
2017-02-01T09:08:09.508Z,1013.15
2017-02-01T09:09:20.916Z,1013.15
2017-02-01T09:10:32.370Z,1013.12
2017-02-01T09:11:43.773Z,1013.14
2017-02-01T09:12:55.180Z,1013.13
2017-02-01T09:14:06.587Z,1013.16
2017-02-01T09:15:18.190Z,1013.12
2017-02-01T09:16:29.642Z,1013.12
2017-02-01T09:17:41.252Z,1013.11
2017-02-01T09:18:52.660Z,1013.08
2017-02-01T09:20:04.274Z,1013.02
2017-02-01T09:21:15.692Z,1013.03
2017-02-01T09:22:27.148Z,1013.01
2017-02-01T09:23:38.553Z,1013.04
2017-02-01T09:24:49.975Z,1013.07
2017-02-01T09:26:01.575Z,1013.03
2017-02-01T09:27:12.981Z,1013.01
2017-02-01T09:28:24.430Z,1012.97
2017-02-01T09:29:35.835Z,1012.97
2017-02-01T09:30:47.446Z,1013
2017-02-01T09:31:58.859Z,1012.94
2017-02-01T09:33:10.263Z,1012.94
2017-02-01T09:34:21.723Z,1012.98
2017-02-01T09:35:33.129Z,1012.98
2017-02-01T09:36:44.529Z,1012.87
2017-02-01T09:37:55.948Z,1012.91
2017-02-01T09:39:07.356Z,1012.94
2017-02-01T09:40:18.813Z,1012.91
2017-02-01T09:41:30.221Z,1012.97
2017-02-01T09:42:41.639Z,1012.98
2017-02-01T09:43:53.047Z,1012.99
2017-02-01T09:45:04.448Z,1013
2017-02-01T09:46:15.906Z,1013.02
2017-02-01T09:47:27.514Z,1013.03
2017-02-01T09:48:38.934Z,1013.08
2017-02-01T09:49:50.341Z,1013.03
2017-02-01T09:51:01.751Z,1013.06
2017-02-01T09:52:13.214Z,1013.04
2017-02-01T09:53:24.623Z,1013.07
2017-02-01T09:54:36.024Z,1013.13
2017-02-01T09:55:47.428Z,1013.09
2017-02-01T09:56:58.847Z,1013.12
2017-02-01T09:58:10.302Z,1013.14
2017-02-01T09:59:21.708Z,1013.08
2017-02-01T10:00:33.115Z,1013.06
2017-02-01T10:01:44.528Z,1013.04
2017-02-01T10:02:55.943Z,1013.08
2017-02-01T10:04:07.391Z,1013.04
2017-02-01T10:05:19.006Z,1013.04
2017-02-01T10:06:30.412Z,1013.09
2017-02-01T10:07:41.838Z,1013.02
2017-02-01T10:08:53.244Z,1013.02
2017-02-01T10:10:04.695Z,1013.01
2017-02-01T10:11:16.100Z,1013.01
2017-02-01T10:12:27.516Z,1013.05
2017-02-01T10:13:38.945Z,1012.98
2017-02-01T10:14:50.363Z,1013.02
2017-02-01T10:16:01.831Z,1012.97
2017-02-01T10:17:13.440Z,1012.99
2017-02-01T10:18:25.056Z,1013.01
2017-02-01T10:19:36.473Z,1012.95
2017-02-01T10:20:47.875Z,1012.98
2017-02-01T10:21:59.535Z,1013.03
2017-02-01T10:23:10.946Z,1012.96
2017-02-01T10:24:22.356Z,1012.95
2017-02-01T10:25:33.971Z,1012.92
2017-02-01T10:26:45.373Z,1012.86
2017-02-01T10:27:56.833Z,1012.95
2017-02-01T10:29:08.252Z,1012.9
2017-02-01T10:30:19.665Z,1012.89
2017-02-01T10:31:31.087Z,1012.97
2017-02-01T10:32:42.695Z,1012.86
2017-02-01T10:33:54.147Z,1012.89
2017-02-01T10:35:05.550Z,1012.84
2017-02-01T10:36:16.954Z,1012.83
2017-02-01T10:37:28.372Z,1012.87
2017-02-01T10:38:39.783Z,1012.83
2017-02-01T10:39:51.232Z,1012.8
2017-02-01T10:41:02.631Z,1012.79
2017-02-01T10:42:14.046Z,1012.76
2017-02-01T10:43:25.462Z,1012.79
2017-02-01T10:44:36.874Z,1012.7
2017-02-01T10:45:48.331Z,1012.7
2017-02-01T10:46:59.745Z,1012.71
2017-02-01T10:48:11.150Z,1012.7
2017-02-01T10:49:22.564Z,1012.74
2017-02-01T10:50:33.972Z,1012.68
2017-02-01T10:51:45.437Z,1012.65
2017-02-01T10:52:56.850Z,1012.67
2017-02-01T10:54:08.262Z,1012.57
2017-02-01T10:55:19.671Z,1012.58
2017-02-01T10:56:31.078Z,1012.58
2017-02-01T10:57:42.542Z,1012.58
2017-02-01T10:58:53.951Z,1012.52
2017-02-01T11:00:05.361Z,1012.53
2017-02-01T11:01:16.771Z,1012.53
2017-02-01T11:02:28.180Z,1012.57
2017-02-01T11:03:39.632Z,1012.57
2017-02-01T11:04:51.041Z,1012.57
2017-02-01T11:06:02.452Z,1012.59
2017-02-01T11:07:13.861Z,1012.57
2017-02-01T11:08:25.274Z,1012.62
2017-02-01T11:09:36.935Z,1012.54
2017-02-01T11:10:48.354Z,1012.45
2017-02-01T11:11:59.770Z,1012.43
2017-02-01T11:13:11.175Z,1012.42
2017-02-01T11:14:22.581Z,1012.34
2017-02-01T11:15:34.044Z,1012.33
2017-02-01T11:16:45.444Z,1012.32
2017-02-01T11:17:56.849Z,1012.32
2017-02-01T11:19:08.255Z,1012.29
2017-02-01T11:20:19.664Z,1012.26
2017-02-01T11:21:31.136Z,1012.24
2017-02-01T11:22:42.547Z,1012.16
2017-02-01T11:23:53.952Z,1012.14
2017-02-01T11:25:05.360Z,1012.13
2017-02-01T11:26:16.764Z,1011.99
2017-02-01T11:27:28.252Z,1011.96
2017-02-01T11:28:39.659Z,1012.02
2017-02-01T11:29:51.064Z,1011.99
2017-02-01T11:31:02.491Z,1011.98
2017-02-01T11:32:13.896Z,1011.95
2017-02-01T11:33:25.354Z,1011.95
2017-02-01T11:34:36.967Z,1011.89
2017-02-01T11:35:48.381Z,1011.9
2017-02-01T11:36:59.791Z,1011.9
2017-02-01T11:38:11.199Z,1011.9
2017-02-01T11:39:22.663Z,1011.9
2017-02-01T11:40:34.090Z,1011.88
2017-02-01T11:41:45.725Z,1011.84
2017-02-01T11:42:57.135Z,1011.88
2017-02-01T11:44:08.540Z,1011.94
2017-02-01T11:45:20.002Z,1011.87
2017-02-01T11:46:31.410Z,1011.88
2017-02-01T11:47:42.813Z,1011.83
2017-02-01T11:48:54.221Z,1011.78
2017-02-01T11:50:05.632Z,1011.77
2017-02-01T11:51:17.098Z,1011.78
2017-02-01T11:52:28.509Z,1011.77
2017-02-01T11:53:39.921Z,1011.77
2017-02-01T11:54:51.330Z,1011.72
2017-02-01T11:56:02.746Z,1011.67
2017-02-01T11:57:14.415Z,1011.56
2017-02-01T11:58:25.821Z,1011.62
2017-02-01T11:59:37.235Z,1011.64
2017-02-01T12:00:48.852Z,1011.49
2017-02-01T12:02:00.463Z,1011.54
2017-02-01T12:03:11.996Z,1011.5
2017-02-01T12:04:23.413Z,1011.57
2017-02-01T12:05:34.856Z,1011.51
2017-02-01T12:06:46.269Z,1011.53
2017-02-01T12:07:57.678Z,1011.57
2017-02-01T12:09:09.135Z,1011.61
2017-02-01T12:10:20.547Z,1011.54
2017-02-01T12:11:31.956Z,1011.54
2017-02-01T12:12:43.361Z,1011.55
2017-02-01T12:13:54.775Z,1011.55
2017-02-01T12:15:06.237Z,1011.47
2017-02-01T12:16:17.655Z,1011.4
2017-02-01T12:17:29.281Z,1011.35
2017-02-01T12:18:41.092Z,1011.34
2017-02-01T12:19:52.510Z,1011.32
2017-02-01T12:21:03.975Z,1011.32
2017-02-01T12:22:15.587Z,1011.28
2017-02-01T12:23:27.004Z,1011.26
2017-02-01T12:24:38.412Z,1011.28
2017-02-01T12:25:49.831Z,1011.24
2017-02-01T12:27:01.300Z,1011.22
2017-02-01T12:28:12.712Z,1011.24
2017-02-01T12:29:24.118Z,1011.21
2017-02-01T12:30:35.732Z,1011.18
2017-02-01T12:31:47.145Z,1011.21
2017-02-01T12:32:58.616Z,1011.13
2017-02-01T12:34:10.228Z,1011.1
2017-02-01T12:35:21.632Z,1011.15
2017-02-01T12:36:33.073Z,1011.09
2017-02-01T12:37:44.483Z,1011.09
2017-02-01T12:38:55.949Z,1011.1
2017-02-01T12:40:07.364Z,1011.1
2017-02-01T12:41:18.971Z,1011.06
2017-02-01T12:42:30.383Z,1011.06
2017-02-01T12:43:41.986Z,1011.02
2017-02-01T12:44:53.450Z,1011.03
2017-02-01T12:46:04.861Z,1011
2017-02-01T12:47:16.290Z,1010.96
2017-02-01T12:48:27.902Z,1010.96
2017-02-01T12:49:39.316Z,1010.93
2017-02-01T12:50:51.242Z,1010.89
2017-02-01T12:52:02.660Z,1010.86
2017-02-01T12:53:14.070Z,1010.83
2017-02-01T12:54:25.481Z,1010.82
2017-02-01T12:55:36.946Z,1010.82
2017-02-01T12:56:48.360Z,1010.78
2017-02-01T12:57:59.764Z,1010.72
2017-02-01T12:59:11.171Z,1010.74
2017-02-01T13:01:32.019Z,1010.71
2017-02-01T13:02:43.427Z,1010.69
2017-02-01T13:03:54.838Z,1010.65
2017-02-01T13:05:06.532Z,1010.72
2017-02-01T13:06:17.939Z,1010.71
2017-02-01T13:07:29.393Z,1010.71
2017-02-01T13:08:40.811Z,1010.72
2017-02-01T13:09:52.224Z,1010.74
2017-02-01T13:11:03.633Z,1010.67
2017-02-01T13:12:15.052Z,1010.74
2017-02-01T13:13:26.733Z,1010.74
2017-02-01T13:14:38.154Z,1010.71
2017-02-01T13:15:49.765Z,1010.74
2017-02-01T13:17:01.172Z,1010.65
2017-02-01T13:18:12.596Z,1010.64
2017-02-01T13:19:24.054Z,1010.56
2017-02-01T13:20:35.665Z,1010.56
2017-02-01T13:21:47.074Z,1010.5
2017-02-01T13:22:58.487Z,1010.48
2017-02-01T13:24:10.090Z,1010.47
2017-02-01T13:25:21.543Z,1010.49
2017-02-01T13:26:33.151Z,1010.5
2017-02-01T13:27:44.563Z,1010.5
2017-02-01T13:28:55.972Z,1010.52
2017-02-01T13:30:07.382Z,1010.48
2017-02-01T13:31:18.841Z,1010.49
2017-02-01T13:32:30.246Z,1010.48
2017-02-01T13:33:41.660Z,1010.43
2017-02-01T13:34:53.064Z,1010.43
2017-02-01T13:36:04.471Z,1010.38
2017-02-01T13:37:15.929Z,1010.38
2017-02-01T13:38:27.339Z,1010.4
2017-02-01T13:39:38.746Z,1010.35
2017-02-01T13:40:50.154Z,1010.38
2017-02-01T13:42:01.561Z,1010.36
2017-02-01T13:43:13.014Z,1010.32
2017-02-01T13:44:24.618Z,1010.3
2017-02-01T13:45:36.027Z,1010.28
2017-02-01T13:46:47.439Z,1010.27
2017-02-01T13:47:58.848Z,1010.28
2017-02-01T13:49:10.319Z,1010.24
2017-02-01T13:50:21.721Z,1010.2
2017-02-01T13:51:33.133Z,1010.15
2017-02-01T13:52:44.536Z,1010.15
2017-02-01T13:53:56.151Z,1010.09
2017-02-01T13:55:07.608Z,1010.07
2017-02-01T13:56:19.226Z,1010.05
2017-02-01T13:57:30.632Z,1010.03
2017-02-01T13:58:42.037Z,1009.94
2017-02-01T13:59:53.455Z,1009.97
2017-02-01T14:01:04.951Z,1010
2017-02-01T14:02:16.359Z,1009.98
2017-02-01T14:03:27.767Z,1009.97
2017-02-01T14:04:39.175Z,1009.95
2017-02-01T14:05:50.581Z,1009.95
2017-02-01T14:07:02.233Z,1009.93
2017-02-01T14:08:13.638Z,1009.92
2017-02-01T14:09:25.051Z,1009.91
2017-02-01T14:10:36.492Z,1009.96
2017-02-01T14:11:47.902Z,1009.93
2017-02-01T14:12:59.358Z,1009.94
2017-02-01T14:14:10.763Z,1009.95
2017-02-01T14:15:22.176Z,1009.9
2017-02-01T14:16:33.582Z,1009.94
2017-02-01T14:17:44.990Z,1009.91
2017-02-01T14:18:56.451Z,1009.91
2017-02-01T14:20:07.857Z,1009.9
2017-02-01T14:21:19.263Z,1009.97
2017-02-01T14:22:30.676Z,1009.97
2017-02-01T14:23:42.075Z,1009.94
2017-02-01T14:24:53.528Z,1009.99
2017-02-01T14:26:04.922Z,1009.97
2017-02-01T14:27:16.323Z,1009.99
2017-02-01T14:28:27.729Z,1010.01